De Kooy, Netherlands
Current Conditions -  °F | °C
As of 8:55 PM on Thursday 27 Nov 2014 (Local Time) from EHKD Reporting Station
Haze Haze  
Wind Chill: 36°   Ceiling: 600
Heat Index: 43°   Visibility: 2.8mi
Dew Point: 43°   Wind: 14mph
Humidity: 100%   Direction: 110°ESE
Pressure: 29.74"   Gusts: NA
Location:  52.92°N, 4.78°E
Report Text: EHKD 271955Z AUTO 11012KT 4500 BR BKN006 BKN007 OVC014 06/06 Q1007 YLO 12010KT 5000 BR FEW006 SCT007 BKN025
Loading
Personal Weather Stations






























Interactive Weather Map New forecast layout! Learn more

10-Day Weather Forecast

Advertisements
Track Severe Weather on mobile